sensor_id;sensor_type;location;lat;lon;timestamp;P1;durP1;ratioP1;P2;durP2;ratioP2
9823;SDS011;4951;50.778;7.196;2022-11-21T00:00:38;17.07;;;4.67;;
9823;SDS011;4951;50.778;7.196;2022-11-21T00:03:07;16.20;;;4.90;;
9823;SDS011;4951;50.778;7.196;2022-11-21T00:05:37;19.93;;;4.63;;
9823;SDS011;4951;50.778;7.196;2022-11-21T00:08:06;15.23;;;4.40;;
9823;SDS011;4951;50.778;7.196;2022-11-21T00:10:34;17.03;;;5.33;;
9823;SDS011;4951;50.778;7.196;2022-11-21T00:13:02;14.97;;;4.90;;
9823;SDS011;4951;50.778;7.196;2022-11-21T00:15:31;23.23;;;4.93;;
9823;SDS011;4951;50.778;7.196;2022-11-21T00:18:01;12.93;;;3.93;;
9823;SDS011;4951;50.778;7.196;2022-11-21T00:20:29;12.00;;;3.97;;
9823;SDS011;4951;50.778;7.196;2022-11-21T00:22:56;16.87;;;4.83;;
9823;SDS011;4951;50.778;7.196;2022-11-21T00:25:23;16.90;;;4.60;;
9823;SDS011;4951;50.778;7.196;2022-11-21T00:27:51;13.70;;;3.80;;
9823;SDS011;4951;50.778;7.196;2022-11-21T00:30:18;12.87;;;4.37;;
9823;SDS011;4951;50.778;7.196;2022-11-21T00:32:48;16.57;;;4.70;;
9823;SDS011;4951;50.778;7.196;2022-11-21T00:35:15;16.10;;;4.33;;
9823;SDS011;4951;50.778;7.196;2022-11-21T00:37:42;12.77;;;4.10;;
9823;SDS011;4951;50.778;7.196;2022-11-21T00:40:10;11.53;;;3.67;;
9823;SDS011;4951;50.778;7.196;2022-11-21T00:42:37;22.23;;;4.53;;
9823;SDS011;4951;50.778;7.196;2022-11-21T00:45:05;13.50;;;3.97;;
9823;SDS011;4951;50.778;7.196;2022-11-21T00:47:33;12.73;;;3.90;;
9823;SDS011;4951;50.778;7.196;2022-11-21T00:50:01;19.90;;;4.50;;
9823;SDS011;4951;50.778;7.196;2022-11-21T00:52:29;12.33;;;3.97;;
9823;SDS011;4951;50.778;7.196;2022-11-21T00:54:56;16.27;;;4.23;;
9823;SDS011;4951;50.778;7.196;2022-11-21T00:57:23;15.50;;;4.33;;
9823;SDS011;4951;50.778;7.196;2022-11-21T00:59:50;17.70;;;3.90;;
9823;SDS011;4951;50.778;7.196;2022-11-21T01:02:17;21.77;;;5.13;;
9823;SDS011;4951;50.778;7.196;2022-11-21T01:04:44;17.47;;;4.20;;
9823;SDS011;4951;50.778;7.196;2022-11-21T01:07:13;19.07;;;4.07;;
9823;SDS011;4951;50.778;7.196;2022-11-21T01:09:40;14.60;;;3.80;;
9823;SDS011;4951;50.778;7.196;2022-11-21T01:12:07;12.60;;;3.50;;
9823;SDS011;4951;50.778;7.196;2022-11-21T01:14:38;13.83;;;3.60;;
9823;SDS011;4951;50.778;7.196;2022-11-21T01:17:05;14.87;;;4.00;;
9823;SDS011;4951;50.778;7.196;2022-11-21T01:19:32;13.00;;;3.73;;
9823;SDS011;4951;50.778;7.196;2022-11-21T01:21:59;17.80;;;4.93;;
9823;SDS011;4951;50.778;7.196;2022-11-21T01:24:28;10.23;;;3.80;;
9823;SDS011;4951;50.778;7.196;2022-11-21T01:26:55;15.10;;;4.17;;
9823;SDS011;4951;50.778;7.196;2022-11-21T01:29:22;10.50;;;3.33;;
9823;SDS011;4951;50.778;7.196;2022-11-21T01:31:50;17.57;;;4.00;;
9823;SDS011;4951;50.778;7.196;2022-11-21T01:34:17;14.40;;;3.87;;
9823;SDS011;4951;50.778;7.196;2022-11-21T01:36:44;16.37;;;4.33;;
9823;SDS011;4951;50.778;7.196;2022-11-21T01:39:11;15.77;;;4.10;;
9823;SDS011;4951;50.778;7.196;2022-11-21T01:41:40;11.87;;;3.40;;
9823;SDS011;4951;50.778;7.196;2022-11-21T01:44:12;13.77;;;3.57;;
9823;SDS011;4951;50.778;7.196;2022-11-21T01:46:43;13.80;;;4.07;;
9823;SDS011;4951;50.778;7.196;2022-11-21T01:49:11;14.37;;;3.90;;
9823;SDS011;4951;50.778;7.196;2022-11-21T01:51:42;15.13;;;4.20;;
9823;SDS011;4951;50.778;7.196;2022-11-21T01:54:15;13.20;;;4.07;;
9823;SDS011;4951;50.778;7.196;2022-11-21T01:56:49;13.70;;;3.80;;
9823;SDS011;4951;50.778;7.196;2022-11-21T01:59:25;8.20;;;3.70;;
9823;SDS011;4951;50.778;7.196;2022-11-21T02:01:55;11.53;;;3.70;;
9823;SDS011;4951;50.778;7.196;2022-11-21T02:04:27;15.77;;;4.60;;
9823;SDS011;4951;50.778;7.196;2022-11-21T02:06:58;9.87;;;3.53;;
9823;SDS011;4951;50.778;7.196;2022-11-21T02:09:27;12.53;;;4.03;;
9823;SDS011;4951;50.778;7.196;2022-11-21T02:11:59;13.10;;;4.13;;
9823;SDS011;4951;50.778;7.196;2022-11-21T02:14:30;13.90;;;4.10;;
9823;SDS011;4951;50.778;7.196;2022-11-21T02:16:59;16.10;;;4.60;;
9823;SDS011;4951;50.778;7.196;2022-11-21T02:19:31;13.43;;;3.97;;
9823;SDS011;4951;50.778;7.196;2022-11-21T02:22:05;13.20;;;3.63;;
9823;SDS011;4951;50.778;7.196;2022-11-21T02:24:37;15.80;;;4.30;;
9823;SDS011;4951;50.778;7.196;2022-11-21T02:27:10;18.03;;;5.07;;
9823;SDS011;4951;50.778;7.196;2022-11-21T02:29:37;14.17;;;4.07;;
9823;SDS011;4951;50.778;7.196;2022-11-21T02:32:05;11.87;;;3.77;;
9823;SDS011;4951;50.778;7.196;2022-11-21T02:34:32;9.50;;;3.40;;
9823;SDS011;4951;50.778;7.196;2022-11-21T02:37:00;19.40;;;4.10;;
9823;SDS011;4951;50.778;7.196;2022-11-21T02:39:28;15.23;;;3.70;;
9823;SDS011;4951;50.778;7.196;2022-11-21T02:42:02;12.27;;;3.70;;
9823;SDS011;4951;50.778;7.196;2022-11-21T02:44:36;14.23;;;3.57;;
9823;SDS011;4951;50.778;7.196;2022-11-21T02:47:08;10.47;;;3.00;;
9823;SDS011;4951;50.778;7.196;2022-11-21T02:49:39;11.47;;;3.27;;
9823;SDS011;4951;50.778;7.196;2022-11-21T02:52:12;9.80;;;3.30;;
9823;SDS011;4951;50.778;7.196;2022-11-21T02:54:39;16.07;;;3.70;;
9823;SDS011;4951;50.778;7.196;2022-11-21T02:57:06;10.97;;;2.90;;
9823;SDS011;4951;50.778;7.196;2022-11-21T02:59:33;13.13;;;3.80;;
9823;SDS011;4951;50.778;7.196;2022-11-21T03:02:02;14.30;;;3.27;;
9823;SDS011;4951;50.778;7.196;2022-11-21T03:04:29;9.90;;;3.10;;
9823;SDS011;4951;50.778;7.196;2022-11-21T03:06:56;11.27;;;3.53;;
9823;SDS011;4951;50.778;7.196;2022-11-21T03:09:24;10.17;;;3.47;;
9823;SDS011;4951;50.778;7.196;2022-11-21T03:11:51;12.60;;;3.27;;
9823;SDS011;4951;50.778;7.196;2022-11-21T03:14:18;12.30;;;3.50;;
9823;SDS011;4951;50.778;7.196;2022-11-21T03:16:47;11.43;;;3.37;;
9823;SDS011;4951;50.778;7.196;2022-11-21T03:19:14;10.07;;;3.33;;
9823;SDS011;4951;50.778;7.196;2022-11-21T03:21:41;13.43;;;3.07;;
9823;SDS011;4951;50.778;7.196;2022-11-21T03:24:08;9.47;;;2.80;;
9823;SDS011;4951;50.778;7.196;2022-11-21T03:26:35;9.40;;;3.60;;
9823;SDS011;4951;50.778;7.196;2022-11-21T03:29:02;8.20;;;2.80;;
9823;SDS011;4951;50.778;7.196;2022-11-21T03:31:29;11.27;;;3.50;;
9823;SDS011;4951;50.778;7.196;2022-11-21T03:33:58;8.47;;;3.13;;
9823;SDS011;4951;50.778;7.196;2022-11-21T03:36:25;11.30;;;3.40;;
9823;SDS011;4951;50.778;7.196;2022-11-21T03:38:53;8.50;;;2.97;;
9823;SDS011;4951;50.778;7.196;2022-11-21T03:41:21;10.03;;;3.13;;
9823;SDS011;4951;50.778;7.196;2022-11-21T03:43:54;8.53;;;3.07;;
9823;SDS011;4951;50.778;7.196;2022-11-21T03:46:22;8.93;;;3.30;;
9823;SDS011;4951;50.778;7.196;2022-11-21T03:48:49;10.17;;;3.20;;
9823;SDS011;4951;50.778;7.196;2022-11-21T03:51:18;11.17;;;3.57;;
9823;SDS011;4951;50.778;7.196;2022-11-21T03:53:45;11.40;;;3.20;;
9823;SDS011;4951;50.778;7.196;2022-11-21T03:56:14;7.67;;;3.40;;
9823;SDS011;4951;50.778;7.196;2022-11-21T03:58:41;9.13;;;3.00;;
9823;SDS011;4951;50.778;7.196;2022-11-21T04:01:09;9.43;;;2.87;;
9823;SDS011;4951;50.778;7.196;2022-11-21T04:03:38;9.50;;;2.97;;
9823;SDS011;4951;50.778;7.196;2022-11-21T04:06:05;7.83;;;2.90;;
9823;SDS011;4951;50.778;7.196;2022-11-21T04:08:34;7.73;;;2.70;;
9823;SDS011;4951;50.778;7.196;2022-11-21T04:11:01;10.23;;;3.10;;
9823;SDS011;4951;50.778;7.196;2022-11-21T04:13:29;7.43;;;2.73;;
9823;SDS011;4951;50.778;7.196;2022-11-21T04:15:56;7.60;;;2.87;;
9823;SDS011;4951;50.778;7.196;2022-11-21T04:18:23;8.00;;;3.03;;
9823;SDS011;4951;50.778;7.196;2022-11-21T04:20:54;11.93;;;3.00;;
9823;SDS011;4951;50.778;7.196;2022-11-21T04:23:22;9.17;;;3.10;;
9823;SDS011;4951;50.778;7.196;2022-11-21T04:25:50;8.33;;;3.17;;
9823;SDS011;4951;50.778;7.196;2022-11-21T04:28:18;7.40;;;2.47;;
9823;SDS011;4951;50.778;7.196;2022-11-21T04:30:45;13.27;;;3.30;;
9823;SDS011;4951;50.778;7.196;2022-11-21T04:33:12;7.63;;;2.80;;
9823;SDS011;4951;50.778;7.196;2022-11-21T04:35:41;11.00;;;2.80;;
9823;SDS011;4951;50.778;7.196;2022-11-21T04:38:09;7.27;;;2.83;;
9823;SDS011;4951;50.778;7.196;2022-11-21T04:40:36;6.30;;;2.80;;
9823;SDS011;4951;50.778;7.196;2022-11-21T04:43:05;10.00;;;2.80;;
9823;SDS011;4951;50.778;7.196;2022-11-21T04:45:32;10.07;;;2.77;;
9823;SDS011;4951;50.778;7.196;2022-11-21T04:48:00;10.73;;;3.20;;
9823;SDS011;4951;50.778;7.196;2022-11-21T04:50:27;7.50;;;2.80;;
9823;SDS011;4951;50.778;7.196;2022-11-21T04:52:54;7.47;;;3.00;;
9823;SDS011;4951;50.778;7.196;2022-11-21T04:55:22;9.60;;;3.73;;
9823;SDS011;4951;50.778;7.196;2022-11-21T04:57:52;8.53;;;2.97;;
9823;SDS011;4951;50.778;7.196;2022-11-21T05:00:21;7.57;;;2.80;;
9823;SDS011;4951;50.778;7.196;2022-11-21T05:02:49;7.97;;;2.97;;
9823;SDS011;4951;50.778;7.196;2022-11-21T05:05:16;9.60;;;3.10;;
9823;SDS011;4951;50.778;7.196;2022-11-21T05:07:44;10.27;;;3.70;;
9823;SDS011;4951;50.778;7.196;2022-11-21T05:10:11;9.57;;;3.40;;
9823;SDS011;4951;50.778;7.196;2022-11-21T05:12:38;10.30;;;3.40;;
9823;SDS011;4951;50.778;7.196;2022-11-21T05:15:25;7.40;;;3.40;;
9823;SDS011;4951;50.778;7.196;2022-11-21T05:17:52;8.73;;;3.80;;
9823;SDS011;4951;50.778;7.196;2022-11-21T05:20:19;7.03;;;3.93;;
9823;SDS011;4951;50.778;7.196;2022-11-21T05:22:49;8.93;;;3.30;;
9823;SDS011;4951;50.778;7.196;2022-11-21T05:25:17;9.27;;;3.90;;
9823;SDS011;4951;50.778;7.196;2022-11-21T05:27:44;8.70;;;3.80;;
9823;SDS011;4951;50.778;7.196;2022-11-21T05:30:11;9.07;;;3.60;;
9823;SDS011;4951;50.778;7.196;2022-11-21T05:32:41;6.77;;;3.33;;
9823;SDS011;4951;50.778;7.196;2022-11-21T05:35:09;9.73;;;3.67;;
9823;SDS011;4951;50.778;7.196;2022-11-21T05:37:36;7.60;;;3.13;;
9823;SDS011;4951;50.778;7.196;2022-11-21T05:40:04;9.57;;;3.70;;
9823;SDS011;4951;50.778;7.196;2022-11-21T05:42:32;12.33;;;3.70;;
9823;SDS011;4951;50.778;7.196;2022-11-21T05:45:17;11.53;;;3.73;;
9823;SDS011;4951;50.778;7.196;2022-11-21T05:47:47;12.10;;;3.50;;
9823;SDS011;4951;50.778;7.196;2022-11-21T05:50:14;7.93;;;3.30;;
9823;SDS011;4951;50.778;7.196;2022-11-21T05:52:41;9.47;;;4.10;;
9823;SDS011;4951;50.778;7.196;2022-11-21T05:55:09;10.53;;;3.80;;
9823;SDS011;4951;50.778;7.196;2022-11-21T05:57:36;9.60;;;3.73;;
9823;SDS011;4951;50.778;7.196;2022-11-21T06:00:04;11.67;;;4.10;;
9823;SDS011;4951;50.778;7.196;2022-11-21T06:02:32;9.67;;;3.97;;
9823;SDS011;4951;50.778;7.196;2022-11-21T06:05:19;10.33;;;4.10;;
9823;SDS011;4951;50.778;7.196;2022-11-21T06:07:47;9.30;;;4.07;;
9823;SDS011;4951;50.778;7.196;2022-11-21T06:10:15;12.43;;;4.40;;
9823;SDS011;4951;50.778;7.196;2022-11-21T06:12:45;7.30;;;4.63;;
9823;SDS011;4951;50.778;7.196;2022-11-21T06:15:12;9.80;;;4.40;;
9823;SDS011;4951;50.778;7.196;2022-11-21T06:17:40;12.83;;;4.80;;
9823;SDS011;4951;50.778;7.196;2022-11-21T06:20:07;10.13;;;4.30;;
9823;SDS011;4951;50.778;7.196;2022-11-21T06:22:37;10.10;;;4.33;;
9823;SDS011;4951;50.778;7.196;2022-11-21T06:25:04;12.17;;;4.73;;
9823;SDS011;4951;50.778;7.196;2022-11-21T06:27:31;10.70;;;4.10;;
9823;SDS011;4951;50.778;7.196;2022-11-21T06:29:59;12.07;;;4.50;;
9823;SDS011;4951;50.778;7.196;2022-11-21T06:32:26;8.13;;;4.47;;
9823;SDS011;4951;50.778;7.196;2022-11-21T06:34:53;10.60;;;4.70;;
9823;SDS011;4951;50.778;7.196;2022-11-21T06:37:22;10.43;;;4.10;;
9823;SDS011;4951;50.778;7.196;2022-11-21T06:39:50;10.50;;;4.70;;
9823;SDS011;4951;50.778;7.196;2022-11-21T06:42:17;11.43;;;5.30;;
9823;SDS011;4951;50.778;7.196;2022-11-21T06:44:44;8.93;;;4.87;;
9823;SDS011;4951;50.778;7.196;2022-11-21T06:47:11;9.77;;;4.80;;
9823;SDS011;4951;50.778;7.196;2022-11-21T06:49:38;9.63;;;4.93;;
9823;SDS011;4951;50.778;7.196;2022-11-21T06:52:05;8.50;;;4.50;;
9823;SDS011;4951;50.778;7.196;2022-11-21T06:54:32;7.37;;;4.33;;
9823;SDS011;4951;50.778;7.196;2022-11-21T06:57:02;10.90;;;5.17;;
9823;SDS011;4951;50.778;7.196;2022-11-21T06:59:30;9.13;;;5.23;;
9823;SDS011;4951;50.778;7.196;2022-11-21T07:01:57;8.07;;;5.63;;
9823;SDS011;4951;50.778;7.196;2022-11-21T07:04:24;8.87;;;4.83;;
9823;SDS011;4951;50.778;7.196;2022-11-21T07:06:51;8.37;;;4.70;;
9823;SDS011;4951;50.778;7.196;2022-11-21T07:09:19;8.90;;;4.80;;
9823;SDS011;4951;50.778;7.196;2022-11-21T07:11:46;9.10;;;5.03;;
9823;SDS011;4951;50.778;7.196;2022-11-21T07:14:14;9.23;;;4.90;;
9823;SDS011;4951;50.778;7.196;2022-11-21T07:16:42;8.23;;;5.47;;
9823;SDS011;4951;50.778;7.196;2022-11-21T07:19:09;9.40;;;5.10;;
9823;SDS011;4951;50.778;7.196;2022-11-21T07:21:36;9.50;;;5.20;;
9823;SDS011;4951;50.778;7.196;2022-11-21T07:24:03;9.60;;;5.43;;
9823;SDS011;4951;50.778;7.196;2022-11-21T07:26:31;11.20;;;5.40;;
9823;SDS011;4951;50.778;7.196;2022-11-21T07:28:58;10.90;;;5.20;;
9823;SDS011;4951;50.778;7.196;2022-11-21T07:31:30;9.40;;;5.80;;
9823;SDS011;4951;50.778;7.196;2022-11-21T07:33:57;10.47;;;5.77;;
9823;SDS011;4951;50.778;7.196;2022-11-21T07:36:25;9.70;;;5.43;;
9823;SDS011;4951;50.778;7.196;2022-11-21T07:38:52;9.03;;;5.20;;
9823;SDS011;4951;50.778;7.196;2022-11-21T07:41:19;10.37;;;5.03;;
9823;SDS011;4951;50.778;7.196;2022-11-21T07:43:46;6.43;;;5.27;;
9823;SDS011;4951;50.778;7.196;2022-11-21T07:46:13;9.30;;;5.13;;
9823;SDS011;4951;50.778;7.196;2022-11-21T07:48:41;8.63;;;4.93;;
9823;SDS011;4951;50.778;7.196;2022-11-21T07:51:08;8.53;;;4.90;;
9823;SDS011;4951;50.778;7.196;2022-11-21T07:53:35;8.57;;;5.27;;
9823;SDS011;4951;50.778;7.196;2022-11-21T07:56:03;8.67;;;5.40;;
9823;SDS011;4951;50.778;7.196;2022-11-21T07:58:34;9.90;;;5.80;;
9823;SDS011;4951;50.778;7.196;2022-11-21T08:01:02;10.97;;;6.03;;
9823;SDS011;4951;50.778;7.196;2022-11-21T08:03:30;12.03;;;6.10;;
9823;SDS011;4951;50.778;7.196;2022-11-21T08:06:01;10.43;;;5.63;;
9823;SDS011;4951;50.778;7.196;2022-11-21T08:08:32;5.80;;;4.80;;
9823;SDS011;4951;50.778;7.196;2022-11-21T08:11:02;10.10;;;6.47;;
9823;SDS011;4951;50.778;7.196;2022-11-21T08:13:30;8.93;;;5.60;;
9823;SDS011;4951;50.778;7.196;2022-11-21T08:15:57;10.53;;;6.53;;
9823;SDS011;4951;50.778;7.196;2022-11-21T08:18:24;7.97;;;5.70;;
9823;SDS011;4951;50.778;7.196;2022-11-21T08:20:52;7.27;;;5.03;;
9823;SDS011;4951;50.778;7.196;2022-11-21T08:23:20;6.00;;;5.00;;
9823;SDS011;4951;50.778;7.196;2022-11-21T08:25:47;9.07;;;5.37;;
9823;SDS011;4951;50.778;7.196;2022-11-21T08:28:16;7.43;;;4.47;;
9823;SDS011;4951;50.778;7.196;2022-11-21T08:30:43;8.63;;;5.03;;
9823;SDS011;4951;50.778;7.196;2022-11-21T08:33:10;7.00;;;4.87;;
9823;SDS011;4951;50.778;7.196;2022-11-21T08:35:37;8.10;;;4.57;;
9823;SDS011;4951;50.778;7.196;2022-11-21T08:38:04;6.83;;;5.03;;
9823;SDS011;4951;50.778;7.196;2022-11-21T08:40:33;7.50;;;5.37;;
9823;SDS011;4951;50.778;7.196;2022-11-21T08:43:02;7.20;;;4.97;;
9823;SDS011;4951;50.778;7.196;2022-11-21T08:45:30;6.93;;;4.50;;
9823;SDS011;4951;50.778;7.196;2022-11-21T08:47:59;7.67;;;5.70;;
9823;SDS011;4951;50.778;7.196;2022-11-21T08:50:26;7.73;;;4.67;;
9823;SDS011;4951;50.778;7.196;2022-11-21T08:52:57;9.30;;;5.30;;
9823;SDS011;4951;50.778;7.196;2022-11-21T08:55:25;9.80;;;6.00;;
9823;SDS011;4951;50.778;7.196;2022-11-21T08:57:53;6.50;;;4.33;;
9823;SDS011;4951;50.778;7.196;2022-11-21T09:00:21;4.97;;;3.30;;
9823;SDS011;4951;50.778;7.196;2022-11-21T09:02:48;3.70;;;2.97;;
9823;SDS011;4951;50.778;7.196;2022-11-21T09:05:15;4.30;;;3.30;;
9823;SDS011;4951;50.778;7.196;2022-11-21T09:07:42;4.27;;;2.90;;
9823;SDS011;4951;50.778;7.196;2022-11-21T09:10:10;7.10;;;3.67;;
9823;SDS011;4951;50.778;7.196;2022-11-21T09:12:38;7.43;;;3.20;;
9823;SDS011;4951;50.778;7.196;2022-11-21T09:15:08;4.33;;;2.80;;
9823;SDS011;4951;50.778;7.196;2022-11-21T09:17:54;3.97;;;3.00;;
9823;SDS011;4951;50.778;7.196;2022-11-21T09:20:28;7.67;;;2.97;;
9823;SDS011;4951;50.778;7.196;2022-11-21T09:22:56;7.93;;;3.17;;
9823;SDS011;4951;50.778;7.196;2022-11-21T09:25:23;4.73;;;2.80;;
9823;SDS011;4951;50.778;7.196;2022-11-21T09:27:51;7.47;;;2.80;;
9823;SDS011;4951;50.778;7.196;2022-11-21T09:30:19;6.23;;;2.83;;
9823;SDS011;4951;50.778;7.196;2022-11-21T09:32:46;4.20;;;2.40;;
9823;SDS011;4951;50.778;7.196;2022-11-21T09:35:14;5.80;;;2.53;;
9823;SDS011;4951;50.778;7.196;2022-11-21T09:37:41;5.13;;;2.40;;
9823;SDS011;4951;50.778;7.196;2022-11-21T09:40:11;5.17;;;2.20;;
9823;SDS011;4951;50.778;7.196;2022-11-21T09:42:51;3.50;;;2.03;;
9823;SDS011;4951;50.778;7.196;2022-11-21T09:45:30;4.73;;;2.20;;
9823;SDS011;4951;50.778;7.196;2022-11-21T09:48:01;3.07;;;2.00;;
9823;SDS011;4951;50.778;7.196;2022-11-21T09:50:34;3.80;;;2.03;;
9823;SDS011;4951;50.778;7.196;2022-11-21T09:53:04;3.50;;;1.80;;
9823;SDS011;4951;50.778;7.196;2022-11-21T09:55:38;3.83;;;2.00;;
9823;SDS011;4951;50.778;7.196;2022-11-21T09:58:15;3.63;;;1.63;;
9823;SDS011;4951;50.778;7.196;2022-11-21T10:00:50;3.03;;;1.67;;
9823;SDS011;4951;50.778;7.196;2022-11-21T10:03:19;2.13;;;1.80;;
9823;SDS011;4951;50.778;7.196;2022-11-21T10:05:50;3.87;;;1.57;;
9823;SDS011;4951;50.778;7.196;2022-11-21T10:08:22;3.30;;;1.70;;
9823;SDS011;4951;50.778;7.196;2022-11-21T10:10:59;4.83;;;1.53;;
9823;SDS011;4951;50.778;7.196;2022-11-21T10:13:41;3.57;;;1.37;;
9823;SDS011;4951;50.778;7.196;2022-11-21T10:16:17;1.60;;;1.40;;
9823;SDS011;4951;50.778;7.196;2022-11-21T10:18:57;2.10;;;1.40;;
9823;SDS011;4951;50.778;7.196;2022-11-21T10:21:48;2.97;;;1.40;;
9823;SDS011;4951;50.778;7.196;2022-11-21T10:24:43;2.93;;;1.50;;
9823;SDS011;4951;50.778;7.196;2022-11-21T10:27:21;2.80;;;1.40;;
9823;SDS011;4951;50.778;7.196;2022-11-21T10:29:56;1.30;;;1.20;;
9823;SDS011;4951;50.778;7.196;2022-11-21T10:32:29;1.83;;;1.30;;
9823;SDS011;4951;50.778;7.196;2022-11-21T10:35:01;3.67;;;1.37;;
9823;SDS011;4951;50.778;7.196;2022-11-21T10:37:39;2.10;;;1.43;;
9823;SDS011;4951;50.778;7.196;2022-11-21T10:40:13;2.30;;;1.57;;
9823;SDS011;4951;50.778;7.196;2022-11-21T10:42:58;2.27;;;1.40;;
9823;SDS011;4951;50.778;7.196;2022-11-21T10:45:49;1.93;;;1.40;;
9823;SDS011;4951;50.778;7.196;2022-11-21T10:48:16;2.60;;;1.30;;
9823;SDS011;4951;50.778;7.196;2022-11-21T10:50:47;2.00;;;1.33;;
9823;SDS011;4951;50.778;7.196;2022-11-21T10:53:26;1.80;;;1.20;;
9823;SDS011;4951;50.778;7.196;2022-11-21T10:56:12;2.20;;;1.30;;
9823;SDS011;4951;50.778;7.196;2022-11-21T10:58:43;1.43;;;1.20;;
9823;SDS011;4951;50.778;7.196;2022-11-21T11:01:17;2.43;;;1.47;;
9823;SDS011;4951;50.778;7.196;2022-11-21T11:06:48;1.97;;;1.20;;
9823;SDS011;4951;50.778;7.196;2022-11-21T11:09:22;5.87;;;1.37;;
9823;SDS011;4951;50.778;7.196;2022-11-21T11:11:52;1.53;;;1.20;;
9823;SDS011;4951;50.778;7.196;2022-11-21T11:14:39;2.77;;;1.30;;
9823;SDS011;4951;50.778;7.196;2022-11-21T11:17:14;2.63;;;1.40;;
9823;SDS011;4951;50.778;7.196;2022-11-21T11:19:46;1.87;;;1.20;;
9823;SDS011;4951;50.778;7.196;2022-11-21T11:22:26;1.70;;;1.23;;
9823;SDS011;4951;50.778;7.196;2022-11-21T11:24:54;3.33;;;1.47;;
9823;SDS011;4951;50.778;7.196;2022-11-21T11:27:25;2.27;;;1.20;;
9823;SDS011;4951;50.778;7.196;2022-11-21T11:29:54;2.43;;;1.50;;
9823;SDS011;4951;50.778;7.196;2022-11-21T11:32:21;2.60;;;1.30;;
9823;SDS011;4951;50.778;7.196;2022-11-21T11:34:54;2.97;;;1.30;;
9823;SDS011;4951;50.778;7.196;2022-11-21T11:37:38;3.27;;;1.37;;
9823;SDS011;4951;50.778;7.196;2022-11-21T11:40:13;2.53;;;1.37;;
9823;SDS011;4951;50.778;7.196;2022-11-21T11:42:52;2.63;;;1.40;;
9823;SDS011;4951;50.778;7.196;2022-11-21T11:45:49;2.70;;;1.30;;
9823;SDS011;4951;50.778;7.196;2022-11-21T11:48:42;4.53;;;1.60;;
9823;SDS011;4951;50.778;7.196;2022-11-21T11:51:15;1.80;;;1.20;;
9823;SDS011;4951;50.778;7.196;2022-11-21T11:53:47;2.53;;;1.30;;
9823;SDS011;4951;50.778;7.196;2022-11-21T11:56:19;3.00;;;1.50;;
9823;SDS011;4951;50.778;7.196;2022-11-21T11:58:52;3.27;;;1.77;;
9823;SDS011;4951;50.778;7.196;2022-11-21T12:01:24;3.53;;;1.50;;
9823;SDS011;4951;50.778;7.196;2022-11-21T12:03:57;2.67;;;1.30;;
9823;SDS011;4951;50.778;7.196;2022-11-21T12:06:33;2.17;;;1.27;;
9823;SDS011;4951;50.778;7.196;2022-11-21T12:09:10;3.50;;;1.47;;
9823;SDS011;4951;50.778;7.196;2022-11-21T12:11:48;2.53;;;1.40;;
9823;SDS011;4951;50.778;7.196;2022-11-21T12:14:35;1.93;;;1.30;;
9823;SDS011;4951;50.778;7.196;2022-11-21T12:17:39;3.13;;;1.40;;
9823;SDS011;4951;50.778;7.196;2022-11-21T12:20:13;2.30;;;1.60;;
9823;SDS011;4951;50.778;7.196;2022-11-21T12:22:46;3.77;;;1.87;;
9823;SDS011;4951;50.778;7.196;2022-11-21T12:25:18;4.37;;;1.70;;
9823;SDS011;4951;50.778;7.196;2022-11-21T12:27:49;3.77;;;1.60;;
9823;SDS011;4951;50.778;7.196;2022-11-21T12:30:26;4.30;;;1.47;;
9823;SDS011;4951;50.778;7.196;2022-11-21T12:33:15;4.90;;;1.90;;
9823;SDS011;4951;50.778;7.196;2022-11-21T12:35:51;2.97;;;1.43;;
9823;SDS011;4951;50.778;7.196;2022-11-21T12:38:43;3.83;;;1.60;;
9823;SDS011;4951;50.778;7.196;2022-11-21T12:41:21;3.37;;;1.60;;
9823;SDS011;4951;50.778;7.196;2022-11-21T12:44:17;3.80;;;1.30;;
9823;SDS011;4951;50.778;7.196;2022-11-21T12:47:00;3.83;;;1.67;;
9823;SDS011;4951;50.778;7.196;2022-11-21T12:49:40;6.40;;;1.47;;
9823;SDS011;4951;50.778;7.196;2022-11-21T12:52:31;2.40;;;1.30;;
9823;SDS011;4951;50.778;7.196;2022-11-21T12:55:30;4.30;;;1.77;;
9823;SDS011;4951;50.778;7.196;2022-11-21T12:58:06;2.80;;;1.47;;
9823;SDS011;4951;50.778;7.196;2022-11-21T13:00:44;3.20;;;1.70;;
9823;SDS011;4951;50.778;7.196;2022-11-21T13:03:41;3.67;;;1.43;;
9823;SDS011;4951;50.778;7.196;2022-11-21T13:06:14;3.57;;;2.20;;
9823;SDS011;4951;50.778;7.196;2022-11-21T13:08:45;6.97;;;1.80;;
9823;SDS011;4951;50.778;7.196;2022-11-21T13:11:20;1.77;;;1.33;;
9823;SDS011;4951;50.778;7.196;2022-11-21T13:14:20;2.83;;;1.60;;
9823;SDS011;4951;50.778;7.196;2022-11-21T13:16:56;5.10;;;1.70;;
9823;SDS011;4951;50.778;7.196;2022-11-21T13:19:32;2.10;;;1.20;;
9823;SDS011;4951;50.778;7.196;2022-11-21T13:22:09;4.87;;;1.57;;
9823;SDS011;4951;50.778;7.196;2022-11-21T13:31:31;3.07;;;1.57;;
9823;SDS011;4951;50.778;7.196;2022-11-21T13:33:58;3.13;;;1.40;;
9823;SDS011;4951;50.778;7.196;2022-11-21T13:36:35;4.17;;;1.70;;
9823;SDS011;4951;50.778;7.196;2022-11-21T13:51:15;4.87;;;2.30;;
9823;SDS011;4951;50.778;7.196;2022-11-21T13:54:15;4.73;;;2.00;;
9823;SDS011;4951;50.778;7.196;2022-11-21T13:57:02;3.90;;;1.80;;
9823;SDS011;4951;50.778;7.196;2022-11-21T13:59:51;2.07;;;1.33;;
9823;SDS011;4951;50.778;7.196;2022-11-21T14:08:27;3.33;;;1.97;;
9823;SDS011;4951;50.778;7.196;2022-11-21T14:10:55;5.00;;;1.90;;
9823;SDS011;4951;50.778;7.196;2022-11-21T14:13:25;5.37;;;2.10;;
9823;SDS011;4951;50.778;7.196;2022-11-21T14:16:07;4.40;;;2.23;;
9823;SDS011;4951;50.778;7.196;2022-11-21T14:18:46;4.80;;;2.70;;
9823;SDS011;4951;50.778;7.196;2022-11-21T14:21:17;5.87;;;2.53;;
9823;SDS011;4951;50.778;7.196;2022-11-21T14:23:47;4.90;;;2.00;;
9823;SDS011;4951;50.778;7.196;2022-11-21T14:26:15;4.73;;;1.67;;
9823;SDS011;4951;50.778;7.196;2022-11-21T14:28:45;4.73;;;2.00;;
9823;SDS011;4951;50.778;7.196;2022-11-21T14:31:13;3.80;;;1.97;;
9823;SDS011;4951;50.778;7.196;2022-11-21T14:33:40;3.00;;;1.60;;
9823;SDS011;4951;50.778;7.196;2022-11-21T14:36:11;4.50;;;1.80;;
9823;SDS011;4951;50.778;7.196;2022-11-21T14:38:42;3.77;;;1.90;;
9823;SDS011;4951;50.778;7.196;2022-11-21T14:41:14;3.40;;;1.93;;
9823;SDS011;4951;50.778;7.196;2022-11-21T14:46:47;4.33;;;2.20;;
9823;SDS011;4951;50.778;7.196;2022-11-21T14:49:19;4.07;;;1.93;;
9823;SDS011;4951;50.778;7.196;2022-11-21T14:51:50;3.07;;;1.90;;
9823;SDS011;4951;50.778;7.196;2022-11-21T14:54:24;5.43;;;2.03;;
9823;SDS011;4951;50.778;7.196;2022-11-21T14:56:54;5.03;;;2.70;;
9823;SDS011;4951;50.778;7.196;2022-11-21T14:59:24;7.13;;;2.20;;
9823;SDS011;4951;50.778;7.196;2022-11-21T15:01:53;4.53;;;2.10;;
9823;SDS011;4951;50.778;7.196;2022-11-21T15:04:27;5.40;;;2.00;;
9823;SDS011;4951;50.778;7.196;2022-11-21T15:06:57;3.97;;;1.80;;
9823;SDS011;4951;50.778;7.196;2022-11-21T15:09:24;4.20;;;1.97;;
9823;SDS011;4951;50.778;7.196;2022-11-21T15:11:53;4.87;;;1.90;;
9823;SDS011;4951;50.778;7.196;2022-11-21T15:14:28;3.47;;;1.90;;
9823;SDS011;4951;50.778;7.196;2022-11-21T15:16:57;5.67;;;1.90;;
9823;SDS011;4951;50.778;7.196;2022-11-21T15:19:30;3.53;;;1.87;;
9823;SDS011;4951;50.778;7.196;2022-11-21T15:22:00;6.53;;;2.33;;
9823;SDS011;4951;50.778;7.196;2022-11-21T15:24:36;5.23;;;2.40;;
9823;SDS011;4951;50.778;7.196;2022-11-21T15:27:22;4.70;;;1.93;;
9823;SDS011;4951;50.778;7.196;2022-11-21T15:30:14;7.87;;;2.50;;
9823;SDS011;4951;50.778;7.196;2022-11-21T15:33:03;6.17;;;2.50;;
9823;SDS011;4951;50.778;7.196;2022-11-21T15:35:43;3.67;;;2.00;;
9823;SDS011;4951;50.778;7.196;2022-11-21T15:38:24;4.70;;;2.37;;
9823;SDS011;4951;50.778;7.196;2022-11-21T15:40:55;6.07;;;2.50;;
9823;SDS011;4951;50.778;7.196;2022-11-21T15:43:33;4.17;;;2.30;;
9823;SDS011;4951;50.778;7.196;2022-11-21T15:46:03;4.60;;;2.43;;
9823;SDS011;4951;50.778;7.196;2022-11-21T15:48:37;4.33;;;2.30;;
9823;SDS011;4951;50.778;7.196;2022-11-21T15:51:04;7.17;;;2.20;;
9823;SDS011;4951;50.778;7.196;2022-11-21T15:53:32;4.57;;;2.07;;
9823;SDS011;4951;50.778;7.196;2022-11-21T15:55:59;6.30;;;2.60;;
9823;SDS011;4951;50.778;7.196;2022-11-21T15:58:26;5.07;;;2.40;;
9823;SDS011;4951;50.778;7.196;2022-11-21T16:00:53;4.17;;;2.30;;
9823;SDS011;4951;50.778;7.196;2022-11-21T16:03:20;7.10;;;2.40;;
9823;SDS011;4951;50.778;7.196;2022-11-21T16:05:51;7.17;;;2.80;;